sensor_id;sensor_type;location;lat;lon;timestamp;temperature;humidity
68385;DHT22;55336;43.062;25.626;2023-01-04T00:01:14;-0.50;99.90
68385;DHT22;55336;43.062;25.626;2023-01-04T00:03:40;-0.50;99.90
68385;DHT22;55336;43.062;25.626;2023-01-04T00:06:07;-0.60;99.90
68385;DHT22;55336;43.062;25.626;2023-01-04T00:08:34;-0.60;99.90
68385;DHT22;55336;43.062;25.626;2023-01-04T00:11:00;-0.60;99.90
68385;DHT22;55336;43.062;25.626;2023-01-04T00:13:26;-0.60;99.90
68385;DHT22;55336;43.062;25.626;2023-01-04T00:15:52;-0.60;99.90
68385;DHT22;55336;43.062;25.626;2023-01-04T00:18:17;-0.60;99.90
68385;DHT22;55336;43.062;25.626;2023-01-04T00:20:43;-0.70;99.90
68385;DHT22;55336;43.062;25.626;2023-01-04T00:23:09;-0.70;99.90
68385;DHT22;55336;43.062;25.626;2023-01-04T00:25:37;-0.70;99.90
68385;DHT22;55336;43.062;25.626;2023-01-04T00:28:03;-0.70;99.90
68385;DHT22;55336;43.062;25.626;2023-01-04T00:30:28;-0.70;99.90
68385;DHT22;55336;43.062;25.626;2023-01-04T00:32:56;-0.70;99.90
68385;DHT22;55336;43.062;25.626;2023-01-04T00:35:21;-0.80;99.90
68385;DHT22;55336;43.062;25.626;2023-01-04T00:37:48;-0.80;99.90
68385;DHT22;55336;43.062;25.626;2023-01-04T00:40:14;-0.90;99.90
68385;DHT22;55336;43.062;25.626;2023-01-04T00:42:39;-0.90;99.90
68385;DHT22;55336;43.062;25.626;2023-01-04T00:45:05;-0.80;99.90
68385;DHT22;55336;43.062;25.626;2023-01-04T00:47:31;-0.80;99.90
68385;DHT22;55336;43.062;25.626;2023-01-04T00:49:57;-0.80;99.90
68385;DHT22;55336;43.062;25.626;2023-01-04T00:52:22;-0.90;99.90
68385;DHT22;55336;43.062;25.626;2023-01-04T00:54:48;-0.90;99.90
68385;DHT22;55336;43.062;25.626;2023-01-04T00:57:14;-0.90;99.90
68385;DHT22;55336;43.062;25.626;2023-01-04T00:59:40;-0.90;99.90
68385;DHT22;55336;43.062;25.626;2023-01-04T01:02:06;-1.00;99.90
68385;DHT22;55336;43.062;25.626;2023-01-04T01:04:32;-1.00;99.90
68385;DHT22;55336;43.062;25.626;2023-01-04T01:06:57;-0.90;99.90
68385;DHT22;55336;43.062;25.626;2023-01-04T01:09:23;-0.90;99.90
68385;DHT22;55336;43.062;25.626;2023-01-04T01:11:51;-0.90;99.90
68385;DHT22;55336;43.062;25.626;2023-01-04T01:14:18;-0.90;99.90
68385;DHT22;55336;43.062;25.626;2023-01-04T01:16:44;-1.00;99.90
68385;DHT22;55336;43.062;25.626;2023-01-04T01:19:10;-1.00;99.90
68385;DHT22;55336;43.062;25.626;2023-01-04T01:21:36;-1.00;99.90
68385;DHT22;55336;43.062;25.626;2023-01-04T01:24:02;-1.00;99.90
68385;DHT22;55336;43.062;25.626;2023-01-04T01:26:28;-1.00;99.90
68385;DHT22;55336;43.062;25.626;2023-01-04T01:28:53;-1.10;99.90
68385;DHT22;55336;43.062;25.626;2023-01-04T01:31:23;-1.10;99.90
68385;DHT22;55336;43.062;25.626;2023-01-04T01:33:50;-1.10;99.90
68385;DHT22;55336;43.062;25.626;2023-01-04T01:36:17;-1.10;99.90
68385;DHT22;55336;43.062;25.626;2023-01-04T01:38:43;-1.10;99.90
68385;DHT22;55336;43.062;25.626;2023-01-04T01:41:20;-1.10;99.90
68385;DHT22;55336;43.062;25.626;2023-01-04T01:46:15;-1.10;99.90
68385;DHT22;55336;43.062;25.626;2023-01-04T01:48:42;-1.10;99.90
68385;DHT22;55336;43.062;25.626;2023-01-04T01:51:14;-1.10;99.90
68385;DHT22;55336;43.062;25.626;2023-01-04T01:53:41;-1.00;99.90
68385;DHT22;55336;43.062;25.626;2023-01-04T01:56:08;-0.90;99.90
68385;DHT22;55336;43.062;25.626;2023-01-04T01:58:38;-0.70;99.90
68385;DHT22;55336;43.062;25.626;2023-01-04T02:01:05;-0.70;99.90
68385;DHT22;55336;43.062;25.626;2023-01-04T02:03:34;-0.60;99.90
68385;DHT22;55336;43.062;25.626;2023-01-04T02:06:01;-0.60;99.90
68385;DHT22;55336;43.062;25.626;2023-01-04T02:08:28;-0.50;99.90
68385;DHT22;55336;43.062;25.626;2023-01-04T02:10:54;-0.40;99.90
68385;DHT22;55336;43.062;25.626;2023-01-04T02:13:21;-0.40;99.90
68385;DHT22;55336;43.062;25.626;2023-01-04T02:18:14;-0.30;99.90
68385;DHT22;55336;43.062;25.626;2023-01-04T02:20:43;-0.20;99.90
68385;DHT22;55336;43.062;25.626;2023-01-04T02:26:00;-0.10;99.90
68385;DHT22;55336;43.062;25.626;2023-01-04T02:31:08;0.10;99.90
68385;DHT22;55336;43.062;25.626;2023-01-04T02:38:59;0.30;99.90
68385;DHT22;55336;43.062;25.626;2023-01-04T02:41:33;0.40;99.90
68385;DHT22;55336;43.062;25.626;2023-01-04T02:44:24;0.50;99.90
68385;DHT22;55336;43.062;25.626;2023-01-04T02:47:08;0.50;99.90
68385;DHT22;55336;43.062;25.626;2023-01-04T02:49:34;0.40;99.90
68385;DHT22;55336;43.062;25.626;2023-01-04T02:52:19;0.50;99.90
68385;DHT22;55336;43.062;25.626;2023-01-04T02:54:46;0.50;99.90
68385;DHT22;55336;43.062;25.626;2023-01-04T03:02:52;0.60;99.90
68385;DHT22;55336;43.062;25.626;2023-01-04T03:11:20;0.70;99.90
68385;DHT22;55336;43.062;25.626;2023-01-04T03:14:14;0.70;99.90
68385;DHT22;55336;43.062;25.626;2023-01-04T03:16:41;0.60;99.90
68385;DHT22;55336;43.062;25.626;2023-01-04T03:19:09;0.60;99.90
68385;DHT22;55336;43.062;25.626;2023-01-04T03:21:36;0.50;99.90
68385;DHT22;55336;43.062;25.626;2023-01-04T03:24:03;0.40;99.90
68385;DHT22;55336;43.062;25.626;2023-01-04T03:26:50;0.40;99.90
68385;DHT22;55336;43.062;25.626;2023-01-04T03:29:53;0.50;99.90
68385;DHT22;55336;43.062;25.626;2023-01-04T03:35:38;0.40;99.90
68385;DHT22;55336;43.062;25.626;2023-01-04T03:38:11;0.40;99.90
68385;DHT22;55336;43.062;25.626;2023-01-04T03:41:02;0.30;99.90
68385;DHT22;55336;43.062;25.626;2023-01-04T03:43:57;0.30;99.90
68385;DHT22;55336;43.062;25.626;2023-01-04T03:46:46;0.20;99.90
68385;DHT22;55336;43.062;25.626;2023-01-04T03:49:35;0.20;99.90
68385;DHT22;55336;43.062;25.626;2023-01-04T03:52:04;0.10;99.90
68385;DHT22;55336;43.062;25.626;2023-01-04T03:54:31;0.10;99.90
68385;DHT22;55336;43.062;25.626;2023-01-04T03:56:57;0.00;99.90
68385;DHT22;55336;43.062;25.626;2023-01-04T03:59:24;0.00;99.90
68385;DHT22;55336;43.062;25.626;2023-01-04T04:01:49;-0.10;99.90
68385;DHT22;55336;43.062;25.626;2023-01-04T04:04:15;-0.20;99.90
68385;DHT22;55336;43.062;25.626;2023-01-04T04:07:00;-0.20;99.90
68385;DHT22;55336;43.062;25.626;2023-01-04T04:09:43;-0.30;99.90
68385;DHT22;55336;43.062;25.626;2023-01-04T04:12:10;-0.30;99.90
68385;DHT22;55336;43.062;25.626;2023-01-04T04:14:35;-0.50;99.90
68385;DHT22;55336;43.062;25.626;2023-01-04T04:17:01;-0.40;99.90
68385;DHT22;55336;43.062;25.626;2023-01-04T04:19:27;-0.50;99.90
68385;DHT22;55336;43.062;25.626;2023-01-04T04:21:52;-0.50;99.90
68385;DHT22;55336;43.062;25.626;2023-01-04T04:24:19;-0.60;99.90
68385;DHT22;55336;43.062;25.626;2023-01-04T04:26:45;-0.60;99.90
68385;DHT22;55336;43.062;25.626;2023-01-04T04:29:11;-0.70;99.90
68385;DHT22;55336;43.062;25.626;2023-01-04T04:31:37;-0.70;99.90
68385;DHT22;55336;43.062;25.626;2023-01-04T04:34:02;-0.80;99.90
68385;DHT22;55336;43.062;25.626;2023-01-04T04:36:28;-0.80;99.90
68385;DHT22;55336;43.062;25.626;2023-01-04T04:38:54;-0.90;99.90
68385;DHT22;55336;43.062;25.626;2023-01-04T04:41:20;-0.90;99.90
68385;DHT22;55336;43.062;25.626;2023-01-04T04:44:05;-0.90;99.90
68385;DHT22;55336;43.062;25.626;2023-01-04T04:46:30;-1.00;99.90
68385;DHT22;55336;43.062;25.626;2023-01-04T04:48:56;-1.00;99.90
68385;DHT22;55336;43.062;25.626;2023-01-04T04:51:22;-0.80;99.90
68385;DHT22;55336;43.062;25.626;2023-01-04T04:53:48;-0.70;99.90
68385;DHT22;55336;43.062;25.626;2023-01-04T04:56:13;-0.60;99.90
68385;DHT22;55336;43.062;25.626;2023-01-04T04:58:39;-0.60;99.90
68385;DHT22;55336;43.062;25.626;2023-01-04T05:01:05;-0.60;99.90
68385;DHT22;55336;43.062;25.626;2023-01-04T05:03:31;-0.50;99.90
68385;DHT22;55336;43.062;25.626;2023-01-04T05:05:57;-0.60;99.90
68385;DHT22;55336;43.062;25.626;2023-01-04T05:08:23;-0.60;99.90
68385;DHT22;55336;43.062;25.626;2023-01-04T05:10:49;-0.60;99.90
68385;DHT22;55336;43.062;25.626;2023-01-04T05:13:14;-0.30;99.90
68385;DHT22;55336;43.062;25.626;2023-01-04T05:15:41;-0.60;99.90
68385;DHT22;55336;43.062;25.626;2023-01-04T05:18:08;-0.50;99.90
68385;DHT22;55336;43.062;25.626;2023-01-04T05:20:34;-0.60;99.90
68385;DHT22;55336;43.062;25.626;2023-01-04T05:23:00;-0.60;99.90
68385;DHT22;55336;43.062;25.626;2023-01-04T05:25:25;-0.60;99.90
68385;DHT22;55336;43.062;25.626;2023-01-04T05:27:51;-0.70;99.90
68385;DHT22;55336;43.062;25.626;2023-01-04T05:30:17;-0.70;99.90
68385;DHT22;55336;43.062;25.626;2023-01-04T05:33:02;-0.70;99.90
68385;DHT22;55336;43.062;25.626;2023-01-04T05:35:28;-0.70;99.90
68385;DHT22;55336;43.062;25.626;2023-01-04T05:37:53;-0.80;99.90
68385;DHT22;55336;43.062;25.626;2023-01-04T05:40:19;-0.70;99.90
68385;DHT22;55336;43.062;25.626;2023-01-04T05:42:45;-0.70;99.90
68385;DHT22;55336;43.062;25.626;2023-01-04T05:45:12;-0.70;99.90
68385;DHT22;55336;43.062;25.626;2023-01-04T05:47:38;-0.80;99.90
68385;DHT22;55336;43.062;25.626;2023-01-04T05:50:04;-0.80;99.90
68385;DHT22;55336;43.062;25.626;2023-01-04T05:52:30;-0.80;99.90
68385;DHT22;55336;43.062;25.626;2023-01-04T05:54:56;-0.80;99.90
68385;DHT22;55336;43.062;25.626;2023-01-04T05:57:22;-0.70;99.90
68385;DHT22;55336;43.062;25.626;2023-01-04T05:59:48;-0.60;99.90
68385;DHT22;55336;43.062;25.626;2023-01-04T06:02:18;-0.60;99.90
68385;DHT22;55336;43.062;25.626;2023-01-04T06:04:44;-0.50;99.90
68385;DHT22;55336;43.062;25.626;2023-01-04T06:07:10;-0.40;99.90
68385;DHT22;55336;43.062;25.626;2023-01-04T06:09:36;-0.30;99.90
68385;DHT22;55336;43.062;25.626;2023-01-04T06:12:02;-0.20;99.90
68385;DHT22;55336;43.062;25.626;2023-01-04T06:14:27;-0.10;99.90
68385;DHT22;55336;43.062;25.626;2023-01-04T06:16:53;0.00;99.90
68385;DHT22;55336;43.062;25.626;2023-01-04T06:19:19;0.10;99.90
68385;DHT22;55336;43.062;25.626;2023-01-04T06:21:45;0.20;99.90
68385;DHT22;55336;43.062;25.626;2023-01-04T06:24:11;0.30;99.90
68385;DHT22;55336;43.062;25.626;2023-01-04T06:26:36;0.40;99.90
68385;DHT22;55336;43.062;25.626;2023-01-04T06:29:03;0.50;99.90
68385;DHT22;55336;43.062;25.626;2023-01-04T06:31:28;0.60;99.90
68385;DHT22;55336;43.062;25.626;2023-01-04T06:33:54;0.60;99.90
68385;DHT22;55336;43.062;25.626;2023-01-04T06:36:21;0.70;99.90
68385;DHT22;55336;43.062;25.626;2023-01-04T06:38:47;0.80;99.90
68385;DHT22;55336;43.062;25.626;2023-01-04T06:41:13;0.80;99.90
68385;DHT22;55336;43.062;25.626;2023-01-04T06:43:39;0.90;99.90
68385;DHT22;55336;43.062;25.626;2023-01-04T06:46:05;1.00;99.90
68385;DHT22;55336;43.062;25.626;2023-01-04T06:48:31;1.10;99.90
68385;DHT22;55336;43.062;25.626;2023-01-04T06:50:57;1.20;99.90
68385;DHT22;55336;43.062;25.626;2023-01-04T06:53:26;1.20;99.90
68385;DHT22;55336;43.062;25.626;2023-01-04T06:55:51;1.30;99.90
68385;DHT22;55336;43.062;25.626;2023-01-04T06:58:17;1.40;99.90
68385;DHT22;55336;43.062;25.626;2023-01-04T07:00:43;1.50;99.90
68385;DHT22;55336;43.062;25.626;2023-01-04T07:03:10;1.60;99.90
68385;DHT22;55336;43.062;25.626;2023-01-04T07:05:36;1.60;99.90
68385;DHT22;55336;43.062;25.626;2023-01-04T07:08:02;1.70;99.90
68385;DHT22;55336;43.062;25.626;2023-01-04T07:10:31;1.80;99.90
68385;DHT22;55336;43.062;25.626;2023-01-04T07:12:57;1.90;99.90
68385;DHT22;55336;43.062;25.626;2023-01-04T07:15:23;2.00;99.90
68385;DHT22;55336;43.062;25.626;2023-01-04T07:17:49;2.10;99.90
68385;DHT22;55336;43.062;25.626;2023-01-04T07:20:15;2.20;99.90
68385;DHT22;55336;43.062;25.626;2023-01-04T07:22:41;2.30;99.90
68385;DHT22;55336;43.062;25.626;2023-01-04T07:25:06;2.30;99.90
68385;DHT22;55336;43.062;25.626;2023-01-04T07:27:32;2.40;99.90
68385;DHT22;55336;43.062;25.626;2023-01-04T07:29:58;2.40;99.90
68385;DHT22;55336;43.062;25.626;2023-01-04T07:32:24;2.40;99.90
68385;DHT22;55336;43.062;25.626;2023-01-04T07:34:49;2.50;99.90
68385;DHT22;55336;43.062;25.626;2023-01-04T07:37:15;2.40;99.90
68385;DHT22;55336;43.062;25.626;2023-01-04T07:39:41;2.60;99.90
68385;DHT22;55336;43.062;25.626;2023-01-04T07:42:08;2.70;99.90
68385;DHT22;55336;43.062;25.626;2023-01-04T07:44:34;2.70;99.90
68385;DHT22;55336;43.062;25.626;2023-01-04T07:47:01;2.80;99.90
68385;DHT22;55336;43.062;25.626;2023-01-04T07:49:26;2.90;99.90
68385;DHT22;55336;43.062;25.626;2023-01-04T07:51:52;3.00;99.90
68385;DHT22;55336;43.062;25.626;2023-01-04T07:54:18;3.10;99.90
68385;DHT22;55336;43.062;25.626;2023-01-04T07:56:44;3.30;99.90
68385;DHT22;55336;43.062;25.626;2023-01-04T07:59:11;3.30;99.90
68385;DHT22;55336;43.062;25.626;2023-01-04T08:01:36;3.40;99.90
68385;DHT22;55336;43.062;25.626;2023-01-04T08:04:03;3.60;99.90
68385;DHT22;55336;43.062;25.626;2023-01-04T08:06:30;3.60;99.90
68385;DHT22;55336;43.062;25.626;2023-01-04T08:08:56;3.70;99.90
68385;DHT22;55336;43.062;25.626;2023-01-04T08:11:22;3.70;99.90
68385;DHT22;55336;43.062;25.626;2023-01-04T08:13:49;3.90;99.90
68385;DHT22;55336;43.062;25.626;2023-01-04T08:16:25;3.90;99.90
68385;DHT22;55336;43.062;25.626;2023-01-04T08:18:58;4.00;99.90
68385;DHT22;55336;43.062;25.626;2023-01-04T08:21:25;4.20;99.90
68385;DHT22;55336;43.062;25.626;2023-01-04T08:23:51;4.30;99.90
68385;DHT22;55336;43.062;25.626;2023-01-04T08:26:18;4.40;99.90
68385;DHT22;55336;43.062;25.626;2023-01-04T08:28:43;4.50;99.90
68385;DHT22;55336;43.062;25.626;2023-01-04T08:31:13;4.50;99.90
68385;DHT22;55336;43.062;25.626;2023-01-04T08:33:39;4.70;99.90
68385;DHT22;55336;43.062;25.626;2023-01-04T08:36:09;4.70;99.90
68385;DHT22;55336;43.062;25.626;2023-01-04T08:38:36;4.80;99.90
68385;DHT22;55336;43.062;25.626;2023-01-04T08:41:01;4.90;99.90
68385;DHT22;55336;43.062;25.626;2023-01-04T08:43:27;5.00;99.90
68385;DHT22;55336;43.062;25.626;2023-01-04T08:45:53;4.90;99.90
68385;DHT22;55336;43.062;25.626;2023-01-04T08:48:18;5.00;99.90
68385;DHT22;55336;43.062;25.626;2023-01-04T08:50:44;4.90;99.90
68385;DHT22;55336;43.062;25.626;2023-01-04T08:53:10;5.10;99.90
68385;DHT22;55336;43.062;25.626;2023-01-04T08:55:37;5.30;99.90
68385;DHT22;55336;43.062;25.626;2023-01-04T08:58:03;5.40;99.90
68385;DHT22;55336;43.062;25.626;2023-01-04T09:00:29;5.50;99.90
68385;DHT22;55336;43.062;25.626;2023-01-04T09:02:55;5.60;99.90
68385;DHT22;55336;43.062;25.626;2023-01-04T09:05:21;5.70;99.90
68385;DHT22;55336;43.062;25.626;2023-01-04T09:07:47;5.70;99.90
68385;DHT22;55336;43.062;25.626;2023-01-04T09:10:13;5.70;99.90
68385;DHT22;55336;43.062;25.626;2023-01-04T09:12:39;5.70;99.90
68385;DHT22;55336;43.062;25.626;2023-01-04T09:15:07;5.70;99.90
68385;DHT22;55336;43.062;25.626;2023-01-04T09:17:33;5.70;99.90
68385;DHT22;55336;43.062;25.626;2023-01-04T09:19:59;5.70;99.90
68385;DHT22;55336;43.062;25.626;2023-01-04T09:22:24;5.70;99.90
68385;DHT22;55336;43.062;25.626;2023-01-04T09:24:50;5.80;99.90
68385;DHT22;55336;43.062;25.626;2023-01-04T09:27:16;5.80;99.90
68385;DHT22;55336;43.062;25.626;2023-01-04T09:29:42;5.90;99.90
68385;DHT22;55336;43.062;25.626;2023-01-04T09:32:07;5.90;99.90
68385;DHT22;55336;43.062;25.626;2023-01-04T09:34:33;6.00;99.90
68385;DHT22;55336;43.062;25.626;2023-01-04T09:36:59;6.00;99.90
68385;DHT22;55336;43.062;25.626;2023-01-04T09:39:25;6.10;99.90
68385;DHT22;55336;43.062;25.626;2023-01-04T09:41:55;6.10;99.90
68385;DHT22;55336;43.062;25.626;2023-01-04T09:47:07;6.20;99.90
68385;DHT22;55336;43.062;25.626;2023-01-04T09:49:48;6.20;99.90
68385;DHT22;55336;43.062;25.626;2023-01-04T09:52:17;6.30;99.90
68385;DHT22;55336;43.062;25.626;2023-01-04T09:54:56;6.40;99.90
68385;DHT22;55336;43.062;25.626;2023-01-04T09:59:50;6.50;99.90
68385;DHT22;55336;43.062;25.626;2023-01-04T10:02:21;6.50;99.90
68385;DHT22;55336;43.062;25.626;2023-01-04T10:04:49;6.50;99.90
68385;DHT22;55336;43.062;25.626;2023-01-04T10:07:17;6.50;99.90
68385;DHT22;55336;43.062;25.626;2023-01-04T10:09:45;6.50;99.90
68385;DHT22;55336;43.062;25.626;2023-01-04T10:25:23;6.50;99.90
68385;DHT22;55336;43.062;25.626;2023-01-04T10:28:05;6.60;99.90
68385;DHT22;55336;43.062;25.626;2023-01-04T10:33:12;6.70;99.90
68385;DHT22;55336;43.062;25.626;2023-01-04T10:35:38;6.70;99.90
68385;DHT22;55336;43.062;25.626;2023-01-04T10:38:24;6.80;99.90
68385;DHT22;55336;43.062;25.626;2023-01-04T10:40:51;6.90;99.90
68385;DHT22;55336;43.062;25.626;2023-01-04T10:43:35;7.00;99.90
68385;DHT22;55336;43.062;25.626;2023-01-04T10:51:03;7.00;99.90
68385;DHT22;55336;43.062;25.626;2023-01-04T10:56:08;7.00;99.90
68385;DHT22;55336;43.062;25.626;2023-01-04T10:58:42;7.00;99.90
68385;DHT22;55336;43.062;25.626;2023-01-04T11:01:57;7.00;99.90
68385;DHT22;55336;43.062;25.626;2023-01-04T11:06:22;7.00;99.90
68385;DHT22;55336;43.062;25.626;2023-01-04T11:11:19;7.10;99.90
68385;DHT22;55336;43.062;25.626;2023-01-04T11:13:47;7.20;99.90
68385;DHT22;55336;43.062;25.626;2023-01-04T11:16:13;7.10;99.90
68385;DHT22;55336;43.062;25.626;2023-01-04T11:18:39;7.20;99.90
68385;DHT22;55336;43.062;25.626;2023-01-04T11:21:06;7.20;99.90
68385;DHT22;55336;43.062;25.626;2023-01-04T11:23:33;7.20;99.90
68385;DHT22;55336;43.062;25.626;2023-01-04T11:25:59;7.20;99.90
68385;DHT22;55336;43.062;25.626;2023-01-04T11:28:30;7.30;99.90
68385;DHT22;55336;43.062;25.626;2023-01-04T11:31:02;7.30;99.90
68385;DHT22;55336;43.062;25.626;2023-01-04T11:33:29;7.30;99.90
68385;DHT22;55336;43.062;25.626;2023-01-04T11:35:55;7.30;99.90
68385;DHT22;55336;43.062;25.626;2023-01-04T11:38:27;7.30;99.90
68385;DHT22;55336;43.062;25.626;2023-01-04T11:40:57;7.30;99.90
68385;DHT22;55336;43.062;25.626;2023-01-04T11:43:23;7.30;99.90
68385;DHT22;55336;43.062;25.626;2023-01-04T11:45:54;7.30;99.90
68385;DHT22;55336;43.062;25.626;2023-01-04T11:48:29;7.30;99.90
68385;DHT22;55336;43.062;25.626;2023-01-04T11:50:55;7.30;99.90
68385;DHT22;55336;43.062;25.626;2023-01-04T11:53:29;7.30;99.90
68385;DHT22;55336;43.062;25.626;2023-01-04T11:56:09;7.30;99.90
68385;DHT22;55336;43.062;25.626;2023-01-04T11:58:35;7.40;99.90
68385;DHT22;55336;43.062;25.626;2023-01-04T12:01:02;7.30;99.90
68385;DHT22;55336;43.062;25.626;2023-01-04T12:03:29;7.30;99.90
68385;DHT22;55336;43.062;25.626;2023-01-04T12:05:56;7.40;99.90
68385;DHT22;55336;43.062;25.626;2023-01-04T12:08:30;7.30;99.90
68385;DHT22;55336;43.062;25.626;2023-01-04T12:10:57;7.30;99.90
68385;DHT22;55336;43.062;25.626;2023-01-04T12:13:23;7.40;99.90
68385;DHT22;55336;43.062;25.626;2023-01-04T12:18:28;7.40;99.90
68385;DHT22;55336;43.062;25.626;2023-01-04T12:20:55;7.40;99.90
68385;DHT22;55336;43.062;25.626;2023-01-04T12:23:20;7.40;99.90
68385;DHT22;55336;43.062;25.626;2023-01-04T12:25:48;7.50;99.90
68385;DHT22;55336;43.062;25.626;2023-01-04T12:30:53;7.60;99.90
68385;DHT22;55336;43.062;25.626;2023-01-04T12:41:07;7.70;99.90
68385;DHT22;55336;43.062;25.626;2023-01-04T12:43:36;7.80;99.90
68385;DHT22;55336;43.062;25.626;2023-01-04T12:59:36;8.10;99.90
68385;DHT22;55336;43.062;25.626;2023-01-04T13:04:58;8.10;99.90
68385;DHT22;55336;43.062;25.626;2023-01-04T13:07:26;8.10;99.90
68385;DHT22;55336;43.062;25.626;2023-01-04T13:10:00;8.10;99.90
68385;DHT22;55336;43.062;25.626;2023-01-04T13:12:38;8.10;99.90
68385;DHT22;55336;43.062;25.626;2023-01-04T13:15:09;8.10;99.90
68385;DHT22;55336;43.062;25.626;2023-01-04T13:17:37;8.10;99.90
68385;DHT22;55336;43.062;25.626;2023-01-04T13:20:25;8.10;99.90
68385;DHT22;55336;43.062;25.626;2023-01-04T13:22:54;8.10;99.90
68385;DHT22;55336;43.062;25.626;2023-01-04T13:25:20;8.10;99.90
68385;DHT22;55336;43.062;25.626;2023-01-04T13:27:54;8.10;99.90
68385;DHT22;55336;43.062;25.626;2023-01-04T13:30:26;8.00;99.90
68385;DHT22;55336;43.062;25.626;2023-01-04T13:32:52;8.00;99.90
68385;DHT22;55336;43.062;25.626;2023-01-04T13:35:18;7.90;99.90
68385;DHT22;55336;43.062;25.626;2023-01-04T13:37:45;7.90;99.90
68385;DHT22;55336;43.062;25.626;2023-01-04T13:46:08;7.80;99.90
68385;DHT22;55336;43.062;25.626;2023-01-04T13:49:21;7.90;99.90
68385;DHT22;55336;43.062;25.626;2023-01-04T14:01:39;7.80;99.90
68385;DHT22;55336;43.062;25.626;2023-01-04T14:10:45;7.80;99.90
68385;DHT22;55336;43.062;25.626;2023-01-04T14:13:19;7.70;99.90
68385;DHT22;55336;43.062;25.626;2023-01-04T14:16:15;7.60;99.90
68385;DHT22;55336;43.062;25.626;2023-01-04T14:33:36;7.30;99.90
68385;DHT22;55336;43.062;25.626;2023-01-04T14:36:37;7.30;99.90
68385;DHT22;55336;43.062;25.626;2023-01-04T14:39:15;7.20;99.90
68385;DHT22;55336;43.062;25.626;2023-01-04T14:44:18;7.20;99.90
68385;DHT22;55336;43.062;25.626;2023-01-04T14:46:52;7.20;99.90
68385;DHT22;55336;43.062;25.626;2023-01-04T14:49:19;7.10;99.90
68385;DHT22;55336;43.062;25.626;2023-01-04T14:51:59;7.10;99.90
68385;DHT22;55336;43.062;25.626;2023-01-04T14:54:25;7.10;99.90
68385;DHT22;55336;43.062;25.626;2023-01-04T14:56:52;7.10;99.90
68385;DHT22;55336;43.062;25.626;2023-01-04T14:59:18;7.10;99.90
68385;DHT22;55336;43.062;25.626;2023-01-04T15:01:44;7.00;99.90
68385;DHT22;55336;43.062;25.626;2023-01-04T15:04:10;7.00;99.90
68385;DHT22;55336;43.062;25.626;2023-01-04T15:06:36;7.00;99.90
68385;DHT22;55336;43.062;25.626;2023-01-04T15:09:11;7.00;99.90
68385;DHT22;55336;43.062;25.626;2023-01-04T15:11:37;7.00;99.90
68385;DHT22;55336;43.062;25.626;2023-01-04T15:14:03;7.00;99.90
68385;DHT22;55336;43.062;25.626;2023-01-04T15:16:28;7.00;99.90
68385;DHT22;55336;43.062;25.626;2023-01-04T15:18:54;6.90;99.90
68385;DHT22;55336;43.062;25.626;2023-01-04T15:21:20;6.90;99.90
68385;DHT22;55336;43.062;25.626;2023-01-04T15:23:48;6.90;99.90
68385;DHT22;55336;43.062;25.626;2023-01-04T15:26:14;6.90;99.90
68385;DHT22;55336;43.062;25.626;2023-01-04T15:28:43;6.90;99.90
68385;DHT22;55336;43.062;25.626;2023-01-04T15:31:10;6.90;99.90
68385;DHT22;55336;43.062;25.626;2023-01-04T15:33:36;6.80;99.90
68385;DHT22;55336;43.062;25.626;2023-01-04T15:36:05;6.80;99.90
68385;DHT22;55336;43.062;25.626;2023-01-04T15:38:32;6.80;99.90
68385;DHT22;55336;43.062;25.626;2023-01-04T15:40:58;6.80;99.90
68385;DHT22;55336;43.062;25.626;2023-01-04T15:43:24;6.80;99.90
68385;DHT22;55336;43.062;25.626;2023-01-04T15:45:50;6.80;99.90
68385;DHT22;55336;43.062;25.626;2023-01-04T15:48:16;6.90;99.90
68385;DHT22;55336;43.062;25.626;2023-01-04T15:50:44;6.90;99.90
68385;DHT22;55336;43.062;25.626;2023-01-04T15:53:10;6.90;99.90
68385;DHT22;55336;43.062;25.626;2023-01-04T15:55:36;6.90;99.90
68385;DHT22;55336;43.062;25.626;2023-01-04T15:58:02;6.90;99.90
68385;DHT22;55336;43.062;25.626;2023-01-04T16:00:29;7.00;99.90
68385;DHT22;55336;43.062;25.626;2023-01-04T16:02:55;7.00;99.90
68385;DHT22;55336;43.062;25.626;2023-01-04T16:05:21;7.00;99.90
68385;DHT22;55336;43.062;25.626;2023-01-04T16:07:47;6.80;99.90
68385;DHT22;55336;43.062;25.626;2023-01-04T16:10:14;7.00;99.90
68385;DHT22;55336;43.062;25.626;2023-01-04T16:12:40;6.90;99.90
68385;DHT22;55336;43.062;25.626;2023-01-04T16:15:16;7.00;99.90
68385;DHT22;55336;43.062;25.626;2023-01-04T16:17:42;7.00;99.90
68385;DHT22;55336;43.062;25.626;2023-01-04T16:20:09;7.00;99.90
68385;DHT22;55336;43.062;25.626;2023-01-04T16:22:36;7.00;99.90
68385;DHT22;55336;43.062;25.626;2023-01-04T16:25:01;6.90;99.90
68385;DHT22;55336;43.062;25.626;2023-01-04T16:27:29;7.00;99.90
68385;DHT22;55336;43.062;25.626;2023-01-04T16:29:55;7.00;99.90
68385;DHT22;55336;43.062;25.626;2023-01-04T16:32:21;6.90;99.90
68385;DHT22;55336;43.062;25.626;2023-01-04T16:34:48;7.00;99.90
68385;DHT22;55336;43.062;25.626;2023-01-04T16:37:14;7.00;99.90
68385;DHT22;55336;43.062;25.626;2023-01-04T16:39:40;7.00;99.90
68385;DHT22;55336;43.062;25.626;2023-01-04T16:42:06;7.00;99.90
68385;DHT22;55336;43.062;25.626;2023-01-04T16:44:32;7.00;99.90
68385;DHT22;55336;43.062;25.626;2023-01-04T16:46:58;7.00;99.90
68385;DHT22;55336;43.062;25.626;2023-01-04T16:49:24;7.00;99.90
68385;DHT22;55336;43.062;25.626;2023-01-04T16:51:50;7.00;99.90
68385;DHT22;55336;43.062;25.626;2023-01-04T16:54:16;7.00;99.90
68385;DHT22;55336;43.062;25.626;2023-01-04T16:56:43;7.00;99.90
68385;DHT22;55336;43.062;25.626;2023-01-04T16:59:12;7.00;99.90
68385;DHT22;55336;43.062;25.626;2023-01-04T17:01:43;7.00;99.90
68385;DHT22;55336;43.062;25.626;2023-01-04T17:04:10;7.00;99.90
68385;DHT22;55336;43.062;25.626;2023-01-04T17:06:37;7.00;99.90
68385;DHT22;55336;43.062;25.626;2023-01-04T17:09:03;7.00;99.90
68385;DHT22;55336;43.062;25.626;2023-01-04T17:11:30;7.00;99.90
68385;DHT22;55336;43.062;25.626;2023-01-04T17:13:59;7.00;99.90
68385;DHT22;55336;43.062;25.626;2023-01-04T17:16:25;7.00;99.90
68385;DHT22;55336;43.062;25.626;2023-01-04T17:18:52;7.00;99.90
68385;DHT22;55336;43.062;25.626;2023-01-04T17:21:22;7.00;99.90
68385;DHT22;55336;43.062;25.626;2023-01-04T17:23:49;7.00;99.90
68385;DHT22;55336;43.062;25.626;2023-01-04T17:26:16;7.00;99.90
68385;DHT22;55336;43.062;25.626;2023-01-04T17:28:42;7.00;99.90
68385;DHT22;55336;43.062;25.626;2023-01-04T17:31:12;7.00;99.90
68385;DHT22;55336;43.062;25.626;2023-01-04T17:33:38;7.00;99.90
68385;DHT22;55336;43.062;25.626;2023-01-04T17:36:04;7.00;99.90
68385;DHT22;55336;43.062;25.626;2023-01-04T17:38:30;7.00;99.90
68385;DHT22;55336;43.062;25.626;2023-01-04T17:41:10;7.00;99.90
68385;DHT22;55336;43.062;25.626;2023-01-04T17:43:36;7.00;99.90
68385;DHT22;55336;43.062;25.626;2023-01-04T17:46:02;7.00;99.90
68385;DHT22;55336;43.062;25.626;2023-01-04T17:48:29;7.00;99.90